Terminal Aerodrome Forecast
Issued by NWS Cleveland, OH

Home | Current Version | Previous Version | Text Only | Print | Product List | Glossary Off
Versions: 1 2 3 4 5 6 7 8 9 10 11 12 13 14 15 16

000
FTUS41 KCLE 020500
TAFERI
TAF
KERI 020530Z 0206/0306 19004KT P6SM FEW150 SCT250
     FM021400 27008KT P6SM FEW060 BKN250
     FM021800 31010KT P6SM SCT060 BKN250
     FM030000 24005KT P6SM SCT250=

USA.gov is the U.S. government's official web portal to all federal, state and local government web resources and services.